createdAt,value
2022-10-29T00:00:58.450Z,97391.16
2022-10-29T00:03:25.308Z,97306.44
2022-10-29T00:05:59.330Z,97506.41
2022-10-29T00:08:26.276Z,97474.88
2022-10-29T00:10:52.874Z,97434.53
2022-10-29T00:13:19.926Z,97408.38
2022-10-29T00:15:46.487Z,97429.13
2022-10-29T00:18:13.137Z,97437.84
2022-10-29T00:20:39.710Z,97518.25
2022-10-29T00:23:06.424Z,97377.88
2022-10-29T00:25:33.024Z,97410.97
2022-10-29T00:27:59.931Z,97277.72
2022-10-29T00:30:26.580Z,97273.38
2022-10-29T00:32:53.346Z,97391.88
2022-10-29T00:35:20.123Z,97347.28
2022-10-29T00:37:46.695Z,97299.06
2022-10-29T00:40:13.289Z,97401.69
2022-10-29T00:42:39.881Z,97366.59
2022-10-29T00:45:06.886Z,97468.25
2022-10-29T00:47:34.981Z,97334.53
2022-10-29T00:50:09.606Z,97485.13
2022-10-29T00:52:38.001Z,97403.69
2022-10-29T00:55:06.180Z,97418.91
2022-10-29T00:57:37.351Z,97462.16
2022-10-29T01:00:04.422Z,97515.28
2022-10-29T01:02:31.155Z,97322.59
2022-10-29T01:04:57.970Z,97254.81
2022-10-29T01:07:24.588Z,97383.16
2022-10-29T01:09:51.229Z,97246.31
2022-10-29T01:12:33.593Z,97391.31
2022-10-29T01:15:23.817Z,97493.28
2022-10-29T01:18:11.621Z,97483.88
2022-10-29T01:20:58.440Z,97460.72
2022-10-29T01:23:43.591Z,97493.84
2022-10-29T01:26:24.726Z,97492.91
2022-10-29T01:29:30.263Z,97505.06
2022-10-29T01:32:11.422Z,97418.47
2022-10-29T01:34:48.263Z,97367.47
2022-10-29T01:37:14.804Z,97511.88
2022-10-29T01:40:06.517Z,97336.75
2022-10-29T01:42:36.252Z,97496.13
2022-10-29T01:45:29.520Z,97507.75
2022-10-29T01:48:01.585Z,97419.28
2022-10-29T01:50:28.186Z,97339.25
2022-10-29T01:52:55.236Z,97328.91
2022-10-29T01:55:29.385Z,97428.09
2022-10-29T01:57:56.347Z,97414.69
2022-10-29T02:00:23.931Z,97416.47
2022-10-29T02:03:17.626Z,97501.91
2022-10-29T02:06:20.749Z,97408.53
2022-10-29T02:09:32.496Z,97508.47
2022-10-29T02:12:03.784Z,97456.69
2022-10-29T02:15:04.129Z,97414.03
2022-10-29T02:17:32.152Z,97424.31
2022-10-29T02:19:58.729Z,97493.59
2022-10-29T02:22:25.311Z,97202.19
2022-10-29T02:24:51.878Z,97386.91
2022-10-29T02:27:18.541Z,97454.94
2022-10-29T02:29:45.547Z,97184.97
2022-10-29T02:32:12.113Z,97321.84
2022-10-29T02:34:38.753Z,97424.00
2022-10-29T02:37:05.353Z,97418.22
2022-10-29T02:39:32.834Z,97402.72
2022-10-29T02:41:59.425Z,97466.69
2022-10-29T02:44:26.014Z,97314.91
2022-10-29T02:46:52.602Z,97445.94
2022-10-29T02:49:19.243Z,97353.94
2022-10-29T02:51:45.892Z,97256.78
2022-10-29T02:54:12.493Z,97470.81
2022-10-29T02:56:39.106Z,97438.25
2022-10-29T02:59:09.123Z,97290.47
2022-10-29T03:01:38.432Z,97271.09
2022-10-29T03:04:05.208Z,97376.88
2022-10-29T03:06:31.846Z,97405.88
2022-10-29T03:08:58.436Z,97293.50
2022-10-29T03:11:25.045Z,97381.84
2022-10-29T03:13:51.640Z,97377.75
2022-10-29T03:16:18.210Z,97334.81
2022-10-29T03:18:44.866Z,97266.72
2022-10-29T03:21:11.448Z,97262.91
2022-10-29T03:23:38.048Z,97406.59
2022-10-29T03:26:04.877Z,97371.41
2022-10-29T03:28:32.168Z,97230.91
2022-10-29T03:30:58.913Z,97396.66
2022-10-29T03:33:28.594Z,97347.69
2022-10-29T03:35:58.918Z,97440.94
2022-10-29T03:38:25.633Z,97310.41
2022-10-29T03:40:52.384Z,97278.69
2022-10-29T03:43:19.071Z,97254.66
2022-10-29T03:49:32.205Z,97314.59
2022-10-29T03:51:58.785Z,97338.38
2022-10-29T03:54:25.349Z,97332.72
2022-10-29T03:56:51.914Z,97136.19
2022-10-29T03:59:18.515Z,97332.22
2022-10-29T04:01:45.387Z,97392.53
2022-10-29T04:04:12.283Z,97339.34
2022-10-29T04:06:38.945Z,97378.31
2022-10-29T04:09:05.526Z,97341.66
2022-10-29T04:11:32.154Z,97199.84
2022-10-29T04:13:58.767Z,97287.91
2022-10-29T04:16:25.338Z,97479.34
2022-10-29T04:18:52.078Z,97369.34
2022-10-29T04:29:38.959Z,97251.66
2022-10-29T04:32:05.569Z,97271.63
2022-10-29T04:34:32.172Z,97382.38
2022-10-29T04:36:58.760Z,97430.09
2022-10-29T04:39:25.441Z,97342.00
2022-10-29T04:41:52.050Z,97425.19
2022-10-29T04:44:20.079Z,97390.81
2022-10-29T04:46:46.745Z,97369.50
2022-10-29T04:49:13.437Z,97314.00
2022-10-29T04:51:40.168Z,97288.44
2022-10-29T04:54:06.754Z,97340.50
2022-10-29T04:56:33.355Z,97392.91
2022-10-29T04:58:59.923Z,97068.56
2022-10-29T05:01:26.665Z,97450.88
2022-10-29T05:03:55.695Z,97354.75
2022-10-29T05:06:25.564Z,97423.59
2022-10-29T05:08:52.257Z,97259.50
2022-10-29T05:11:18.995Z,97429.59
2022-10-29T05:13:45.610Z,97332.22
2022-10-29T05:16:12.266Z,97277.81
2022-10-29T05:18:39.719Z,97236.69
2022-10-29T05:21:06.891Z,97226.59
2022-10-29T05:23:33.527Z,97274.41
2022-10-29T05:26:00.110Z,97461.88
2022-10-29T05:28:26.736Z,97415.38
2022-10-29T05:30:53.562Z,97326.78
2022-10-29T05:33:22.122Z,97432.06
2022-10-29T05:35:48.795Z,97435.50
2022-10-29T05:38:15.537Z,97232.78
2022-10-29T05:40:44.990Z,97370.38
2022-10-29T05:43:12.892Z,97366.88
2022-10-29T05:45:39.546Z,97414.66
2022-10-29T05:48:06.491Z,97397.22
2022-10-29T05:50:33.588Z,97399.81
2022-10-29T05:53:01.755Z,97337.06
2022-10-29T05:55:29.083Z,97311.66
2022-10-29T05:57:59.507Z,97263.00
2022-10-29T06:00:27.226Z,97236.94
2022-10-29T06:06:34.673Z,97291.97
2022-10-29T06:09:01.366Z,97351.31
2022-10-29T06:11:27.933Z,97446.72
2022-10-29T06:17:44.795Z,97335.22
2022-10-29T06:20:12.035Z,97407.22
2022-10-29T06:22:38.599Z,97374.84
2022-10-29T06:25:05.681Z,97316.56
2022-10-29T06:27:32.276Z,97428.97
2022-10-29T06:29:58.843Z,97428.97
2022-10-29T06:32:25.467Z,97181.78
2022-10-29T06:34:52.092Z,97255.66
2022-10-29T06:37:18.761Z,97370.88
2022-10-29T06:39:45.434Z,97234.75
2022-10-29T06:42:12.014Z,97447.84
2022-10-29T06:44:38.588Z,97360.06
2022-10-29T06:47:05.840Z,97331.41
2022-10-29T06:49:32.506Z,97419.28
2022-10-29T06:51:59.173Z,97302.84
2022-10-29T06:54:25.744Z,97319.66
2022-10-29T06:56:52.520Z,97330.44
2022-10-29T06:59:19.190Z,97332.91
2022-10-29T07:01:46.701Z,97368.00
2022-10-29T07:04:13.760Z,97226.81
2022-10-29T07:06:40.373Z,97299.97
2022-10-29T07:09:07.044Z,97346.50
2022-10-29T07:11:33.818Z,97399.34
2022-10-29T07:14:00.825Z,97487.34
2022-10-29T07:16:27.425Z,97405.06
2022-10-29T07:18:54.159Z,97410.66
2022-10-29T07:21:20.972Z,97424.59
2022-10-29T07:23:47.575Z,97378.25
2022-10-29T07:26:14.681Z,97456.00
2022-10-29T07:28:41.379Z,97403.47
2022-10-29T07:31:08.038Z,97260.81
2022-10-29T07:33:34.694Z,97394.03
2022-10-29T07:36:01.326Z,97266.78
2022-10-29T07:38:27.950Z,97310.78
2022-10-29T07:40:54.692Z,97272.25
2022-10-29T07:43:21.518Z,97402.63
2022-10-29T07:45:51.995Z,97268.84
2022-10-29T07:48:20.920Z,97390.28
2022-10-29T07:50:47.972Z,97456.03
2022-10-29T07:53:14.622Z,97365.06
2022-10-29T07:55:41.294Z,97394.13
2022-10-29T07:58:10.094Z,97405.63
2022-10-29T08:00:38.089Z,97409.88
2022-10-29T08:03:04.880Z,97419.63
2022-10-29T08:05:31.666Z,97387.03
2022-10-29T08:07:58.690Z,97385.69
2022-10-29T08:10:25.983Z,97325.06
2022-10-29T08:12:53.751Z,97405.16
2022-10-29T08:15:20.636Z,97374.06
2022-10-29T08:17:47.281Z,97268.09
2022-10-29T08:20:14.350Z,97429.56
2022-10-29T08:22:41.018Z,97419.53
2022-10-29T08:25:07.935Z,97419.72
2022-10-29T08:27:34.614Z,97410.00
2022-10-29T08:30:01.187Z,97420.66
2022-10-29T08:32:27.776Z,97434.38
2022-10-29T08:34:54.391Z,97372.97
2022-10-29T08:37:20.971Z,97438.38
2022-10-29T08:39:47.609Z,97365.66
2022-10-29T08:42:29.252Z,97483.50
2022-10-29T08:45:28.122Z,97491.53
2022-10-29T08:48:06.868Z,97504.25
2022-10-29T08:50:42.714Z,97465.13
2022-10-29T08:53:25.904Z,97405.91
2022-10-29T08:55:55.430Z,97439.13
2022-10-29T08:58:36.448Z,97192.72
2022-10-29T09:01:03.301Z,97418.00
2022-10-29T09:03:30.003Z,97394.09
2022-10-29T09:06:06.618Z,97318.06
2022-10-29T09:08:45.417Z,97377.38
2022-10-29T09:11:24.012Z,97463.97
2022-10-29T09:14:18.058Z,97515.06
2022-10-29T09:17:08.298Z,97445.53
2022-10-29T09:19:50.890Z,97366.22
2022-10-29T09:22:30.588Z,97322.69
2022-10-29T09:24:58.682Z,97507.03
2022-10-29T09:27:35.887Z,97511.56
2022-10-29T09:30:10.444Z,97303.50
2022-10-29T09:32:44.455Z,97493.16
2022-10-29T09:35:14.889Z,97337.41
2022-10-29T09:37:44.433Z,97514.50
2022-10-29T09:40:36.361Z,97452.13
2022-10-29T09:43:21.108Z,97524.34
2022-10-29T09:46:11.351Z,97325.88
2022-10-29T09:48:58.081Z,97429.94
2022-10-29T09:51:34.097Z,97523.41
2022-10-29T09:54:00.753Z,97432.75
2022-10-29T09:56:27.501Z,97500.06
2022-10-29T09:58:57.523Z,97292.22
2022-10-29T10:01:24.363Z,97443.19
2022-10-29T10:03:55.151Z,97390.06
2022-10-29T10:06:21.841Z,97434.91
2022-10-29T10:09:04.984Z,97476.44
2022-10-29T10:11:39.103Z,97293.16
2022-10-29T10:14:13.561Z,97276.66
2022-10-29T10:16:40.104Z,97383.13
2022-10-29T10:19:26.034Z,97448.69
2022-10-29T10:21:59.890Z,97219.56
2022-10-29T10:24:37.571Z,97423.34
2022-10-29T10:27:19.455Z,97465.22
2022-10-29T10:30:04.252Z,97456.72
2022-10-29T10:32:31.125Z,97367.97
2022-10-29T10:34:57.719Z,97373.41
2022-10-29T10:37:24.356Z,97177.22
2022-10-29T10:40:18.233Z,97440.69
2022-10-29T10:42:47.040Z,97402.13
2022-10-29T10:45:22.525Z,97358.50
2022-10-29T10:47:51.009Z,97358.19
2022-10-29T10:50:31.504Z,97294.00
2022-10-29T10:52:59.353Z,97295.47
2022-10-29T10:55:26.070Z,97434.25
2022-10-29T10:58:15.676Z,97351.13
2022-10-29T11:00:45.271Z,97265.19
2022-10-29T11:03:18.085Z,97333.56
2022-10-29T11:05:57.683Z,97414.53
2022-10-29T11:08:30.581Z,97266.97
2022-10-29T11:10:59.266Z,97241.03
2022-10-29T11:13:28.907Z,97335.00
2022-10-29T11:16:07.925Z,97409.78
2022-10-29T11:19:00.619Z,97411.22
2022-10-29T11:21:45.283Z,97295.00
2022-10-29T11:24:26.210Z,97402.69
2022-10-29T11:27:22.578Z,97387.97
2022-10-29T11:30:01.956Z,97414.38
2022-10-29T11:32:50.916Z,97405.22
2022-10-29T11:35:46.989Z,97381.09
2022-10-29T11:38:35.673Z,97334.09
2022-10-29T11:41:29.850Z,97399.06
2022-10-29T11:43:56.488Z,97208.53
2022-10-29T11:46:38.054Z,97397.00
2022-10-29T11:49:04.582Z,97393.94
2022-10-29T11:52:10.715Z,97395.25
2022-10-29T11:54:40.234Z,97392.31
2022-10-29T11:57:23.307Z,97392.50
2022-10-29T11:59:59.203Z,97307.47
2022-10-29T12:02:44.002Z,97382.72
2022-10-29T12:05:28.549Z,97158.84
2022-10-29T12:08:20.920Z,97371.47
2022-10-29T12:10:50.460Z,97376.41
2022-10-29T12:13:23.713Z,97373.00
2022-10-29T12:16:06.819Z,97148.88
2022-10-29T12:19:03.978Z,97206.03
2022-10-29T12:21:36.488Z,97376.47
2022-10-29T12:24:24.868Z,97372.19
2022-10-29T12:27:05.768Z,97238.00
2022-10-29T12:29:44.227Z,97358.81
2022-10-29T12:32:15.954Z,97265.78
2022-10-29T12:35:03.051Z,97352.78
2022-10-29T12:37:41.850Z,97351.16
2022-10-29T12:40:25.696Z,97249.13
2022-10-29T12:42:52.346Z,97338.09
2022-10-29T12:45:48.116Z,97322.59
2022-10-29T12:48:41.681Z,97288.59
2022-10-29T12:51:39.640Z,97341.66
2022-10-29T12:54:24.467Z,97348.38
2022-10-29T12:56:51.036Z,97356.72
2022-10-29T12:59:23.816Z,97341.34
2022-10-29T13:04:40.551Z,97300.84
2022-10-29T13:07:22.276Z,97341.19
2022-10-29T13:09:48.927Z,97175.94
2022-10-29T13:12:55.564Z,97335.16
2022-10-29T13:15:29.244Z,97217.56
2022-10-29T13:17:56.456Z,97237.66
2022-10-29T13:20:29.785Z,97226.72
2022-10-29T13:23:00.008Z,97235.38
2022-10-29T13:25:38.770Z,97312.94
2022-10-29T13:28:08.308Z,97311.97
2022-10-29T13:30:41.885Z,97211.69
2022-10-29T13:33:20.612Z,97306.72
2022-10-29T13:35:59.269Z,97313.91
2022-10-29T13:39:05.112Z,97316.38
2022-10-29T13:41:43.259Z,97127.59
2022-10-29T13:44:10.673Z,97318.31
2022-10-29T13:47:00.490Z,97226.00
2022-10-29T13:49:40.924Z,97320.28
2022-10-29T13:52:10.514Z,97325.50
2022-10-29T13:54:42.133Z,97252.59
2022-10-29T13:57:16.611Z,97275.16
2022-10-29T13:59:45.388Z,97186.63
2022-10-29T14:02:44.352Z,97277.28
2022-10-29T14:05:48.193Z,97241.34
2022-10-29T14:08:41.734Z,97310.41
2022-10-29T14:11:18.409Z,97307.16
2022-10-29T14:13:49.406Z,97114.03
2022-10-29T14:16:16.548Z,97298.16
2022-10-29T14:18:43.951Z,97126.44
2022-10-29T14:21:17.647Z,97241.47
2022-10-29T14:24:05.586Z,97322.13
2022-10-29T14:26:33.682Z,97262.31
2022-10-29T14:29:18.841Z,97279.13
2022-10-29T14:31:45.992Z,97289.31
2022-10-29T14:34:23.966Z,97192.59
2022-10-29T14:36:50.549Z,97253.56
2022-10-29T14:39:36.929Z,97328.25
2022-10-29T14:44:51.497Z,97344.38
2022-10-29T14:47:17.994Z,97342.56
2022-10-29T14:49:45.998Z,97212.94
2022-10-29T14:52:33.769Z,97278.97
2022-10-29T14:55:03.136Z,97196.78
2022-10-29T14:57:32.073Z,97191.91
2022-10-29T15:00:02.847Z,97316.38
2022-10-29T15:02:39.384Z,97100.53
2022-10-29T15:05:22.793Z,97266.53
2022-10-29T15:07:49.461Z,97326.84
2022-10-29T15:10:20.407Z,97083.50
2022-10-29T15:12:47.391Z,97151.56
2022-10-29T15:15:16.960Z,97317.38
2022-10-29T15:18:04.775Z,97270.41
2022-10-29T15:20:32.881Z,97301.78
2022-10-29T15:22:59.466Z,97129.59
2022-10-29T15:25:38.967Z,97202.47
2022-10-29T15:28:11.610Z,97225.50
2022-10-29T15:30:38.564Z,97313.38
2022-10-29T15:33:09.016Z,97198.28
2022-10-29T15:35:36.526Z,97211.94
2022-10-29T15:38:03.197Z,97265.38
2022-10-29T15:40:29.910Z,97132.25
2022-10-29T15:42:56.761Z,97197.13
2022-10-29T15:45:28.023Z,97299.75
2022-10-29T15:47:59.370Z,97232.25
2022-10-29T15:50:31.311Z,97076.66
2022-10-29T15:52:59.286Z,97042.44
2022-10-29T15:55:27.311Z,97234.19
2022-10-29T15:57:55.803Z,97238.75
2022-10-29T16:00:23.369Z,97191.47
2022-10-29T16:02:49.969Z,97235.34
2022-10-29T16:05:16.925Z,97273.63
2022-10-29T16:07:43.658Z,97200.38
2022-10-29T16:10:15.754Z,97351.63
2022-10-29T16:12:42.597Z,97315.91
2022-10-29T16:15:17.121Z,97229.06
2022-10-29T16:17:43.895Z,97163.25
2022-10-29T16:20:18.846Z,97241.84
2022-10-29T16:22:45.602Z,97343.22
2022-10-29T16:25:38.819Z,97347.91
2022-10-29T16:28:19.689Z,97260.38
2022-10-29T16:30:53.988Z,97247.72
2022-10-29T16:33:20.842Z,97294.22
2022-10-29T16:35:47.453Z,97161.56
2022-10-29T16:38:14.163Z,97019.31
2022-10-29T16:40:42.897Z,97164.13
2022-10-29T16:43:09.553Z,97332.44
2022-10-29T16:45:37.645Z,97125.41
2022-10-29T16:48:04.309Z,97225.19
2022-10-29T16:50:32.309Z,97142.91
2022-10-29T16:53:10.110Z,97350.06
2022-10-29T16:55:38.189Z,97159.97
2022-10-29T16:58:14.947Z,97241.34
2022-10-29T17:00:41.686Z,97267.44
2022-10-29T17:03:11.628Z,97301.81
2022-10-29T17:05:39.738Z,97131.13
2022-10-29T17:08:06.436Z,97266.66
2022-10-29T17:10:33.258Z,97276.13
2022-10-29T17:13:00.200Z,97239.97
2022-10-29T17:15:26.915Z,97227.78
2022-10-29T17:17:53.506Z,97238.72
2022-10-29T17:20:20.173Z,97085.66
2022-10-29T17:22:46.929Z,97315.31
2022-10-29T17:25:13.562Z,97070.84
2022-10-29T17:27:41.123Z,97307.00
2022-10-29T17:30:08.853Z,97339.34
2022-10-29T17:32:35.440Z,97319.47
2022-10-29T17:35:02.143Z,97263.41
2022-10-29T17:37:29.294Z,97207.22
2022-10-29T17:39:56.005Z,97144.31
2022-10-29T17:42:22.654Z,97214.19
2022-10-29T17:44:49.254Z,97285.03
2022-10-29T17:47:15.875Z,97153.97
2022-10-29T17:49:42.487Z,97329.38
2022-10-29T17:52:09.099Z,97342.03
2022-10-29T17:54:35.936Z,97279.84
2022-10-29T17:57:02.520Z,97307.50
2022-10-29T17:59:29.148Z,97275.38
2022-10-29T18:01:56.431Z,97215.03
2022-10-29T18:04:23.111Z,97171.84
2022-10-29T18:06:49.897Z,97060.25
2022-10-29T18:09:20.197Z,97144.44
2022-10-29T18:11:49.295Z,97279.56
2022-10-29T18:14:16.006Z,97353.31
2022-10-29T18:16:42.587Z,97055.16
2022-10-29T18:19:09.300Z,97200.97
2022-10-29T18:21:35.965Z,97136.06
2022-10-29T18:24:02.527Z,97124.66
2022-10-29T18:26:33.316Z,97145.91
2022-10-29T18:29:19.263Z,97332.34
2022-10-29T18:31:46.828Z,97189.53
2022-10-29T18:34:15.109Z,97197.41
2022-10-29T18:36:42.966Z,97292.47
2022-10-29T18:39:09.672Z,97139.34
2022-10-29T18:41:36.308Z,97177.72
2022-10-29T18:44:03.067Z,97069.34
2022-10-29T18:46:29.719Z,97006.00
2022-10-29T18:48:56.367Z,97207.22
2022-10-29T18:51:25.748Z,97158.16
2022-10-29T18:53:53.278Z,97204.53
2022-10-29T18:56:20.978Z,97161.56
2022-10-29T18:58:48.009Z,97248.97
2022-10-29T19:01:16.551Z,97185.59
2022-10-29T19:03:43.336Z,97212.69
2022-10-29T19:06:12.969Z,97120.47
2022-10-29T19:08:40.927Z,97213.25
2022-10-29T19:11:09.500Z,97234.88
2022-10-29T19:13:36.328Z,97227.78
2022-10-29T19:16:07.152Z,97158.50
2022-10-29T19:18:34.300Z,97244.69
2022-10-29T19:21:05.383Z,97230.34
2022-10-29T19:23:31.999Z,97223.94
2022-10-29T19:26:05.749Z,97213.53
2022-10-29T19:28:32.628Z,97127.28
2022-10-29T19:31:09.683Z,97260.56
2022-10-29T19:33:37.009Z,97215.25
2022-10-29T19:36:04.909Z,97116.00
2022-10-29T19:38:31.525Z,97286.81
2022-10-29T19:40:58.411Z,97268.28
2022-10-29T19:43:25.481Z,97207.91
2022-10-29T19:45:52.390Z,97146.47
2022-10-29T19:48:19.225Z,97134.69
2022-10-29T19:50:46.610Z,97338.22
2022-10-29T19:53:13.419Z,97256.72
2022-10-29T19:55:40.652Z,97272.94
2022-10-29T19:58:07.800Z,97263.22
2022-10-29T20:00:34.412Z,97244.00
2022-10-29T20:03:01.193Z,97163.03
2022-10-29T20:05:27.878Z,97266.97
2022-10-29T20:07:55.914Z,97221.09
2022-10-29T20:10:24.075Z,97155.94
2022-10-29T20:12:50.723Z,97261.38
2022-10-29T20:15:17.383Z,97073.09
2022-10-29T20:17:43.999Z,97210.75
2022-10-29T20:20:15.733Z,97142.63
2022-10-29T20:22:43.458Z,97223.00
2022-10-29T20:25:10.249Z,97170.03
2022-10-29T20:27:36.850Z,97203.09
2022-10-29T20:30:05.229Z,97072.69
2022-10-29T20:32:31.892Z,97288.97
2022-10-29T20:34:58.651Z,97216.09
2022-10-29T20:37:25.272Z,97220.47
2022-10-29T20:39:51.859Z,97223.81
2022-10-29T20:42:18.516Z,97202.47
2022-10-29T20:44:45.981Z,97162.84
2022-10-29T20:47:12.638Z,97262.78
2022-10-29T20:49:39.234Z,97114.59
2022-10-29T20:52:07.321Z,97060.88
2022-10-29T20:54:33.972Z,97081.75
2022-10-29T20:57:00.715Z,97052.84
2022-10-29T20:59:27.372Z,97052.34
2022-10-29T21:01:54.067Z,97287.53
2022-10-29T21:04:20.846Z,97241.94
2022-10-29T21:06:47.448Z,97281.66
2022-10-29T21:09:14.068Z,97246.09
2022-10-29T21:11:41.144Z,97197.00
2022-10-29T21:14:07.768Z,97223.13
2022-10-29T21:16:34.424Z,97202.25
2022-10-29T21:19:01.626Z,97017.97
2022-10-29T21:21:28.690Z,97224.81
2022-10-29T21:23:56.169Z,97311.75
2022-10-29T21:26:23.724Z,97188.97
2022-10-29T21:28:50.732Z,97262.97
2022-10-29T21:31:17.570Z,97307.66
2022-10-29T21:33:44.236Z,97188.84
2022-10-29T21:36:16.678Z,97214.06
2022-10-29T21:38:43.261Z,97155.06
2022-10-29T21:41:09.873Z,97156.00
2022-10-29T21:43:37.210Z,96977.31
2022-10-29T21:46:03.857Z,97036.72
2022-10-29T21:48:30.482Z,97166.66
2022-10-29T21:51:01.927Z,97222.81
2022-10-29T21:53:28.653Z,97110.06
2022-10-29T21:55:59.133Z,97214.78
2022-10-29T21:58:26.029Z,97160.75
2022-10-29T22:00:52.909Z,97173.50
2022-10-29T22:03:19.565Z,97181.38
2022-10-29T22:05:46.645Z,97166.09
2022-10-29T22:08:13.265Z,96994.09
2022-10-29T22:10:39.835Z,97100.00
2022-10-29T22:13:09.149Z,97053.47
2022-10-29T22:15:39.036Z,97042.56
2022-10-29T22:18:05.654Z,97166.53
2022-10-29T22:20:32.279Z,97060.00
2022-10-29T22:22:59.191Z,97117.00
2022-10-29T22:25:26.145Z,97223.22
2022-10-29T22:27:52.723Z,97247.66
2022-10-29T22:30:19.360Z,97176.84
2022-10-29T22:32:45.981Z,97236.91
2022-10-29T22:35:12.671Z,97158.06
2022-10-29T22:37:39.357Z,97244.13
2022-10-29T22:40:06.658Z,97081.41
2022-10-29T22:42:33.310Z,97246.50
2022-10-29T22:44:59.988Z,97183.47
2022-10-29T22:47:26.589Z,97242.78
2022-10-29T22:49:55.478Z,97049.13
2022-10-29T22:52:22.285Z,97124.91
2022-10-29T22:54:49.106Z,97145.50
2022-10-29T22:57:15.696Z,97166.91
2022-10-29T22:59:49.482Z,96983.44
2022-10-29T23:02:16.163Z,97229.41
2022-10-29T23:04:42.817Z,97130.66
2022-10-29T23:07:09.581Z,97109.09
2022-10-29T23:09:36.177Z,97125.47
2022-10-29T23:12:02.784Z,97149.72
2022-10-29T23:14:29.356Z,97124.09
2022-10-29T23:16:55.971Z,97182.16
2022-10-29T23:19:22.532Z,97167.97
2022-10-29T23:21:49.303Z,97168.28
2022-10-29T23:24:15.975Z,97108.69
2022-10-29T23:26:42.533Z,97065.34
2022-10-29T23:29:09.279Z,97033.19
2022-10-29T23:31:35.871Z,97096.56
2022-10-29T23:34:02.499Z,97101.09
2022-10-29T23:36:29.129Z,97156.63
2022-10-29T23:38:59.646Z,97179.69
2022-10-29T23:41:29.495Z,97041.66
2022-10-29T23:43:56.162Z,97045.22
2022-10-29T23:46:22.833Z,97129.72
2022-10-29T23:48:49.530Z,97083.53
2022-10-29T23:51:16.174Z,97133.56
2022-10-29T23:53:42.772Z,97198.63
2022-10-29T23:56:09.414Z,97070.00
2022-10-29T23:58:35.984Z,97178.47
